Aurelia, Iowa
Current Conditions -  °F | °C
As of 5:55 PM on Tuesday 25 Nov 2014 (Local Time) from KCKP Reporting Station
Clear Clear  
Wind Chill: 25°   Ceiling: Unl
Heat Index: 32°   Visibility: 10mi
Dew Point: 20°   Wind: 8mph
Humidity: 62%   Direction: 140°SE
Pressure: 29.93"   Gusts: NA
Location:  42.71°N, 95.44°W
Report Text: KCKP 252355Z AUTO 14007KT 10SM CLR 00/M06 A2993 RMK AO2 T00021064 10027 20000
Loading
Personal Weather Stations






























Interactive Weather Map New forecast layout! Learn more

10-Day Weather Forecast

Advertisements
Track Severe Weather on mobile